createdAt,value
2017-04-09T00:00:12.625Z,99.99
2017-04-09T00:01:12.677Z,99.99
2017-04-09T00:02:12.707Z,99.99
2017-04-09T00:03:12.713Z,99.99
2017-04-09T00:04:12.768Z,99.99
2017-04-09T00:05:12.799Z,99.99
2017-04-09T00:06:12.825Z,99.99
2017-04-09T00:07:12.855Z,99.99
2017-04-09T00:08:12.891Z,99.99
2017-04-09T00:09:12.923Z,99.99
2017-04-09T00:10:12.952Z,99.99
2017-04-09T00:11:12.976Z,99.99
2017-04-09T00:12:13.005Z,99.99
2017-04-09T00:13:13.040Z,99.99
2017-04-09T00:14:13.050Z,99.99
2017-04-09T00:15:13.095Z,99.99
2017-04-09T00:16:13.122Z,99.99
2017-04-09T00:17:13.159Z,99.99
2017-04-09T00:18:13.175Z,99.99
2017-04-09T00:19:13.223Z,99.99
2017-04-09T00:20:13.249Z,99.99
2017-04-09T00:21:13.278Z,99.99
2017-04-09T00:22:13.310Z,99.99
2017-04-09T00:23:13.343Z,99.99
2017-04-09T00:24:13.362Z,99.99
2017-04-09T00:25:13.397Z,99.99
2017-04-09T00:26:13.431Z,99.99
2017-04-09T00:27:13.458Z,99.99
2017-04-09T00:28:13.494Z,99.99
2017-04-09T00:29:13.520Z,99.99
2017-04-09T00:30:13.561Z,99.99
2017-04-09T00:31:13.578Z,99.99
2017-04-09T00:32:13.611Z,99.99
2017-04-09T00:33:13.645Z,99.55
2017-04-09T00:34:13.673Z,99.98
2017-04-09T00:35:13.706Z,99.79
2017-04-09T00:36:13.715Z,99.69
2017-04-09T00:37:13.764Z,99.99
2017-04-09T00:38:13.796Z,99.99
2017-04-09T00:39:13.813Z,99.99
2017-04-09T00:40:13.856Z,99.98
2017-04-09T00:41:13.868Z,99.99
2017-04-09T00:42:13.912Z,99.99
2017-04-09T00:43:13.943Z,99.99
2017-04-09T00:44:13.964Z,99.88
2017-04-09T00:45:14.021Z,99.31
2017-04-09T00:46:14.036Z,99.31
2017-04-09T00:47:14.049Z,99.12
2017-04-09T00:48:14.094Z,98.65
2017-04-09T00:49:14.132Z,98.74
2017-04-09T00:50:14.166Z,98.65
2017-04-09T00:51:14.186Z,98.36
2017-04-09T00:52:14.213Z,98.74
2017-04-09T00:53:14.253Z,99.79
2017-04-09T00:54:14.275Z,99.5
2017-04-09T00:55:14.308Z,99.12
2017-04-09T00:56:14.335Z,99.12
2017-04-09T00:57:14.367Z,99.31
2017-04-09T00:58:14.402Z,99.99
2017-04-09T00:59:14.424Z,99.99
2017-04-09T01:00:14.464Z,99.99
2017-04-09T01:01:14.499Z,99.99
2017-04-09T01:02:14.523Z,99.99
2017-04-09T01:03:14.538Z,99.99
2017-04-09T01:04:14.569Z,99.99
2017-04-09T01:05:14.617Z,99.98
2017-04-09T01:06:14.644Z,99.12
2017-04-09T01:07:14.677Z,99.22
2017-04-09T01:08:14.706Z,99.69
2017-04-09T01:09:14.703Z,99.79
2017-04-09T01:10:14.764Z,99.98
2017-04-09T01:11:14.799Z,99.22
2017-04-09T01:12:14.830Z,99.5
2017-04-09T01:13:14.864Z,99.79
2017-04-09T01:14:14.875Z,99.88
2017-04-09T01:15:14.921Z,99.79
2017-04-09T01:16:14.952Z,99.88
2017-04-09T01:17:14.980Z,99.99
2017-04-09T01:18:15.015Z,99.99
2017-04-09T01:19:15.039Z,99.99
2017-04-09T01:20:15.070Z,99.08
2017-04-09T01:21:15.095Z,99.17
2017-04-09T01:22:15.127Z,98.79
2017-04-09T01:23:15.163Z,98.88
2017-04-09T01:24:15.178Z,98.98
2017-04-09T01:25:15.220Z,98.98
2017-04-09T01:26:15.251Z,98.41
2017-04-09T01:27:15.263Z,98.41
2017-04-09T01:28:15.313Z,98.13
2017-04-09T01:29:15.336Z,98.98
2017-04-09T01:30:15.380Z,99.17
2017-04-09T01:31:15.376Z,98.79
2017-04-09T01:32:15.432Z,99.27
2017-04-09T01:33:15.451Z,99.27
2017-04-09T01:34:15.500Z,99.27
2017-04-09T01:35:15.529Z,99.55
2017-04-09T01:36:15.564Z,99.99
2017-04-09T01:37:15.572Z,99.93
2017-04-09T01:38:15.626Z,99.84
2017-04-09T01:39:15.654Z,99.74
2017-04-09T01:40:15.681Z,99.74
2017-04-09T01:41:15.709Z,99.74
2017-04-09T01:42:15.747Z,99.74
2017-04-09T01:43:15.769Z,99.99
2017-04-09T01:44:15.802Z,99.99
2017-04-09T01:45:15.838Z,99.99
2017-04-09T01:46:15.867Z,99.99
2017-04-09T01:47:15.904Z,99.99
2017-04-09T01:48:15.928Z,99.99
2017-04-09T01:49:15.964Z,99.99
2017-04-09T01:50:15.987Z,99.99
2017-04-09T01:51:15.998Z,99.99
2017-04-09T01:52:16.053Z,99.99
2017-04-09T01:53:16.076Z,99.99
2017-04-09T01:54:16.086Z,99.99
2017-04-09T01:55:16.144Z,99.84
2017-04-09T01:56:16.157Z,99.84
2017-04-09T01:57:16.200Z,98.98
2017-04-09T01:58:16.229Z,98.98
2017-04-09T01:59:16.265Z,99.27
2017-04-09T02:00:16.444Z,99.46
2017-04-09T02:01:16.342Z,99.36
2017-04-09T02:02:16.363Z,99.27
2017-04-09T02:03:16.376Z,98.88
2017-04-09T02:04:16.397Z,99.27
2017-04-09T02:05:16.595Z,98.88
2017-04-09T02:06:16.476Z,98.79
2017-04-09T02:07:16.499Z,98.98
2017-04-09T02:08:16.539Z,99.84
2017-04-09T02:09:16.585Z,99.99
2017-04-09T02:10:16.598Z,99.99
2017-04-09T02:11:16.629Z,99.65
2017-04-09T02:12:16.670Z,99.99
2017-04-09T02:13:16.696Z,99.99
2017-04-09T02:14:16.723Z,99.99
2017-04-09T02:15:16.754Z,99.99
2017-04-09T02:16:16.777Z,99.99
2017-04-09T02:17:16.796Z,99.99
2017-04-09T02:18:16.843Z,99.93
2017-04-09T02:19:16.872Z,99.99
2017-04-09T02:20:16.899Z,99.99
2017-04-09T02:21:16.939Z,99.99
2017-04-09T02:22:16.970Z,99.99
2017-04-09T02:23:35.835Z,99.99
2017-04-09T02:24:35.884Z,99.99
2017-04-09T02:25:35.898Z,99.99
2017-04-09T02:26:35.946Z,99.99
2017-04-09T02:27:35.975Z,99.99
2017-04-09T02:28:35.998Z,99.99
2017-04-09T02:29:36.040Z,99.99
2017-04-09T02:30:36.164Z,99.99
2017-04-09T02:31:36.103Z,99.99
2017-04-09T02:32:36.124Z,99.99
2017-04-09T02:33:36.159Z,99.99
2017-04-09T02:34:36.194Z,99.99
2017-04-09T02:35:36.221Z,99.99
2017-04-09T02:36:36.246Z,99.99
2017-04-09T02:37:36.291Z,99.99
2017-04-09T02:38:36.324Z,99.99
2017-04-09T02:39:36.338Z,99.99
2017-04-09T02:40:36.373Z,99.99
2017-04-09T02:41:36.399Z,99.65
2017-04-09T02:42:36.441Z,99.99
2017-04-09T02:43:36.466Z,99.08
2017-04-09T02:44:36.498Z,99.46
2017-04-09T02:45:36.523Z,99.27
2017-04-09T02:46:36.570Z,99.27
2017-04-09T02:47:36.589Z,99.36
2017-04-09T02:48:36.631Z,98.98
2017-04-09T02:49:36.663Z,99.27
2017-04-09T02:50:36.672Z,99.65
2017-04-09T02:51:36.706Z,99.84
2017-04-09T02:52:36.743Z,99.99
2017-04-09T02:53:36.768Z,99.93
2017-04-09T02:54:36.800Z,99.99
2017-04-09T02:55:36.829Z,99.99
2017-04-09T02:56:36.863Z,99.99
2017-04-09T02:57:36.890Z,99.99
2017-04-09T02:58:36.919Z,99.99
2017-04-09T02:59:36.952Z,99.99
2017-04-09T03:00:36.976Z,99.99
2017-04-09T03:01:36.998Z,99.99
2017-04-09T03:02:37.053Z,99.99
2017-04-09T03:03:37.073Z,99.99
2017-04-09T03:04:37.088Z,99.99
2017-04-09T03:05:37.141Z,99.99
2017-04-09T03:06:37.168Z,99.99
2017-04-09T03:07:37.201Z,99.99
2017-04-09T03:08:37.235Z,99.99
2017-04-09T03:09:37.258Z,99.99
2017-04-09T03:10:37.299Z,99.99
2017-04-09T03:11:37.321Z,99.65
2017-04-09T03:12:37.356Z,99.65
2017-04-09T03:13:37.392Z,99.99
2017-04-09T03:14:37.393Z,99.99
2017-04-09T03:15:37.431Z,99.99
2017-04-09T03:16:37.570Z,99.99
2017-04-09T03:17:37.502Z,99.93
2017-04-09T03:18:37.538Z,99.93
2017-04-09T03:19:37.565Z,99.74
2017-04-09T03:20:37.573Z,99.17
2017-04-09T03:21:37.729Z,99.99
2017-04-09T03:22:37.660Z,99.99
2017-04-09T03:23:37.698Z,99.99
2017-04-09T03:24:37.723Z,99.99
2017-04-09T03:25:37.759Z,99.99
2017-04-09T03:26:37.784Z,99.99
2017-04-09T03:27:37.790Z,99.99
2017-04-09T03:28:37.843Z,99.99
2017-04-09T03:29:37.869Z,99.99
2017-04-09T03:30:37.883Z,99.99
2017-04-09T03:31:37.932Z,99.99
2017-04-09T03:32:37.965Z,99.99
2017-04-09T03:33:38.027Z,99.99
2017-04-09T03:34:38.022Z,99.99
2017-04-09T03:35:38.064Z,99.99
2017-04-09T03:36:38.091Z,99.99
2017-04-09T03:37:38.125Z,99.99
2017-04-09T03:38:38.150Z,99.99
2017-04-09T03:39:38.178Z,99.99
2017-04-09T03:40:38.194Z,99.99
2017-04-09T03:41:38.240Z,99.99
2017-04-09T03:42:38.265Z,99.99
2017-04-09T03:43:38.303Z,99.99
2017-04-09T03:44:38.338Z,99.99
2017-04-09T03:45:38.370Z,99.99
2017-04-09T03:46:38.378Z,99.99
2017-04-09T03:47:38.425Z,99.99
2017-04-09T03:48:38.451Z,99.99
2017-04-09T03:49:38.495Z,99.99
2017-04-09T03:50:38.499Z,99.99
2017-04-09T03:51:38.530Z,99.99
2017-04-09T03:52:38.578Z,99.99
2017-04-09T03:53:38.604Z,99.99
2017-04-09T03:54:38.635Z,99.99
2017-04-09T03:55:38.669Z,99.99
2017-04-09T03:56:38.694Z,99.99
2017-04-09T03:57:38.720Z,99.99
2017-04-09T03:58:38.774Z,99.99
2017-04-09T03:59:38.793Z,99.99
2017-04-09T04:00:38.832Z,99.99
2017-04-09T04:01:38.849Z,99.99
2017-04-09T04:02:38.882Z,99.99
2017-04-09T04:03:38.890Z,99.99
2017-04-09T04:04:38.935Z,99.99
2017-04-09T04:05:38.972Z,99.99
2017-04-09T04:06:39.006Z,99.99
2017-04-09T04:07:39.032Z,99.99
2017-04-09T04:08:39.068Z,99.99
2017-04-09T04:09:39.103Z,99.99
2017-04-09T04:10:39.124Z,99.99
2017-04-09T04:11:39.158Z,99.99
2017-04-09T04:12:39.190Z,99.99
2017-04-09T04:13:39.225Z,99.99
2017-04-09T04:14:39.240Z,99.99
2017-04-09T04:15:39.268Z,99.99
2017-04-09T04:16:39.285Z,99.99
2017-04-09T04:17:39.334Z,99.99
2017-04-09T04:18:39.368Z,99.99
2017-04-09T04:19:39.401Z,99.99
2017-04-09T04:20:39.422Z,99.99
2017-04-09T04:21:39.455Z,99.99
2017-04-09T04:22:39.490Z,99.99
2017-04-09T04:23:39.524Z,99.99
2017-04-09T04:24:39.554Z,99.99
2017-04-09T04:25:39.571Z,99.99
2017-04-09T04:26:39.615Z,99.99
2017-04-09T04:27:39.632Z,99.99
2017-04-09T04:28:39.672Z,99.99
2017-04-09T04:29:39.705Z,99.99
2017-04-09T04:30:39.707Z,99.99
2017-04-09T04:31:39.743Z,99.99
2017-04-09T04:32:39.789Z,99.99
2017-04-09T04:33:39.820Z,99.99
2017-04-09T04:34:39.850Z,99.99
2017-04-09T04:35:39.887Z,99.99
2017-04-09T04:36:39.914Z,99.99
2017-04-09T04:37:39.947Z,99.99
2017-04-09T04:38:39.972Z,99.99
2017-04-09T04:39:40.006Z,99.99
2017-04-09T04:40:40.037Z,99.99
2017-04-09T04:41:40.052Z,99.99
2017-04-09T04:42:40.100Z,99.99
2017-04-09T04:43:40.123Z,99.99
2017-04-09T04:44:40.153Z,99.99
2017-04-09T04:45:40.209Z,99.99
2017-04-09T04:46:40.215Z,99.99
2017-04-09T04:47:40.259Z,99.99
2017-04-09T04:48:40.286Z,99.99
2017-04-09T04:49:40.328Z,99.99
2017-04-09T04:50:40.339Z,99.99
2017-04-09T04:51:40.370Z,99.99
2017-04-09T04:52:40.399Z,99.99
2017-04-09T04:53:40.426Z,99.99
2017-04-09T04:54:40.453Z,99.99
2017-04-09T04:55:40.504Z,99.99
2017-04-09T04:56:40.515Z,99.99
2017-04-09T04:57:40.555Z,99.99
2017-04-09T04:58:40.567Z,99.99
2017-04-09T04:59:40.617Z,99.99
2017-04-09T05:00:40.648Z,99.99
2017-04-09T05:01:40.672Z,99.99
2017-04-09T05:02:40.703Z,99.99
2017-04-09T05:03:40.735Z,99.99
2017-04-09T05:04:40.749Z,99.99
2017-04-09T05:05:40.794Z,99.99
2017-04-09T05:06:40.833Z,99.99
2017-04-09T05:07:40.839Z,99.99
2017-04-09T05:08:40.891Z,99.99
2017-04-09T05:09:40.926Z,99.99
2017-04-09T05:10:40.954Z,99.99
2017-04-09T05:11:40.967Z,99.99
2017-04-09T05:12:41.016Z,99.99
2017-04-09T05:13:41.051Z,99.99
2017-04-09T05:14:41.050Z,99.99
2017-04-09T05:15:41.102Z,99.99
2017-04-09T05:16:41.138Z,99.99
2017-04-09T05:17:41.147Z,99.99
2017-04-09T05:18:41.190Z,99.99
2017-04-09T05:19:41.248Z,99.99
2017-04-09T05:20:41.250Z,99.99
2017-04-09T05:21:41.292Z,99.99
2017-04-09T05:22:41.318Z,99.99
2017-04-09T05:23:41.354Z,99.99
2017-04-09T05:24:41.379Z,99.99
2017-04-09T05:25:41.413Z,99.99
2017-04-09T05:26:41.441Z,99.99
2017-04-09T05:27:41.471Z,99.99
2017-04-09T05:28:41.488Z,99.99
2017-04-09T05:29:41.537Z,99.99
2017-04-09T05:30:41.550Z,99.99
2017-04-09T05:31:41.580Z,99.99
2017-04-09T05:32:41.615Z,99.99
2017-04-09T05:33:41.640Z,99.99
2017-04-09T05:34:41.690Z,99.99
2017-04-09T05:35:41.706Z,99.99
2017-04-09T05:36:41.750Z,99.99
2017-04-09T05:37:41.783Z,99.99
2017-04-09T05:38:41.818Z,99.99
2017-04-09T05:39:41.849Z,99.98
2017-04-09T05:40:41.882Z,99.79
2017-04-09T05:41:41.890Z,99.98
2017-04-09T05:42:41.957Z,99.89
2017-04-09T05:43:41.960Z,99.98
2017-04-09T05:44:42.001Z,99.99
2017-04-09T05:45:42.039Z,99.99
2017-04-09T05:46:42.049Z,99.99
2017-04-09T05:47:42.096Z,99.79
2017-04-09T05:48:42.109Z,99.99
2017-04-09T05:49:42.158Z,99.99
2017-04-09T05:50:42.168Z,99.27
2017-04-09T05:51:42.213Z,99.18
2017-04-09T05:52:42.249Z,99.46
2017-04-09T05:53:42.255Z,98.99
2017-04-09T05:54:42.310Z,98.22
2017-04-09T05:55:42.343Z,98.22
2017-04-09T05:56:42.370Z,98.13
2017-04-09T05:57:42.404Z,98.03
2017-04-09T05:58:42.492Z,98.03
2017-04-09T05:59:42.474Z,97.94
2017-04-09T06:00:42.481Z,98.03
2017-04-09T06:01:42.549Z,97.94
2017-04-09T06:02:42.550Z,98.03
2017-04-09T06:03:42.571Z,97.94
2017-04-09T06:04:42.620Z,98.7
2017-04-09T06:05:42.652Z,98.7
2017-04-09T06:06:42.678Z,98.7
2017-04-09T06:07:42.705Z,98.03
2017-04-09T06:08:42.749Z,98.08
2017-04-09T06:09:42.770Z,98.13
2017-04-09T06:10:42.812Z,97.89
2017-04-09T06:11:42.839Z,97.8
2017-04-09T06:12:42.879Z,97.61
2017-04-09T06:13:42.910Z,97.32
2017-04-09T06:14:42.918Z,97.32
2017-04-09T06:15:42.962Z,97.51
2017-04-09T06:16:43.000Z,97.13
2017-04-09T06:17:43.026Z,96.84
2017-04-09T06:18:43.070Z,96.46
2017-04-09T06:19:43.089Z,96.22
2017-04-09T06:20:43.128Z,96.13
2017-04-09T06:21:43.162Z,96.13
2017-04-09T06:22:43.168Z,95.94
2017-04-09T06:23:43.203Z,95.56
2017-04-09T06:24:43.247Z,95.17
2017-04-09T06:25:43.278Z,95.22
2017-04-09T06:26:43.314Z,95.03
2017-04-09T06:27:43.349Z,94.93
2017-04-09T06:28:43.360Z,94.17
2017-04-09T06:29:43.412Z,94.27
2017-04-09T06:30:43.450Z,93.51
2017-04-09T06:31:43.458Z,93.51
2017-04-09T06:32:43.492Z,92.79
2017-04-09T06:33:43.517Z,92.31
2017-04-09T06:34:43.573Z,91.74
2017-04-09T06:35:43.600Z,91.5
2017-04-09T06:36:43.615Z,90.64
2017-04-09T06:37:43.672Z,89.78
2017-04-09T06:38:43.695Z,89.39
2017-04-09T06:39:43.730Z,89.59
2017-04-09T06:40:43.814Z,88.92
2017-04-09T06:41:43.792Z,88.87
2017-04-09T06:42:43.828Z,88.96
2017-04-09T06:43:43.847Z,88.39
2017-04-09T06:44:43.897Z,87.91
2017-04-09T06:45:43.926Z,87.62
2017-04-09T06:46:43.967Z,87.24
2017-04-09T06:47:43.992Z,87.48
2017-04-09T06:48:44.018Z,87.48
2017-04-09T06:49:44.063Z,86.61
2017-04-09T06:50:44.093Z,86.33
2017-04-09T06:51:44.120Z,86.23
2017-04-09T06:52:44.162Z,86.71
2017-04-09T06:53:44.190Z,86.33
2017-04-09T06:54:44.224Z,85.75
2017-04-09T06:55:44.268Z,85.66
2017-04-09T06:56:44.283Z,85.75
2017-04-09T06:57:44.338Z,85.22
2017-04-09T06:58:44.369Z,84.55
2017-04-09T06:59:44.407Z,83.83
2017-04-09T07:00:44.408Z,83.64
2017-04-09T07:01:44.464Z,83.16
2017-04-09T07:02:44.506Z,82.82
2017-04-09T07:03:44.533Z,80.94
2017-04-09T07:04:44.568Z,80.37
2017-04-09T07:05:44.597Z,79.89
2017-04-09T07:06:44.625Z,79.13
2017-04-09T07:07:44.661Z,79.8
2017-04-09T07:08:44.730Z,79.89
2017-04-09T07:09:44.730Z,79.89
2017-04-09T07:10:44.773Z,79.6
2017-04-09T07:11:44.793Z,79.89
2017-04-09T07:12:44.819Z,79.8
2017-04-09T07:13:44.881Z,80.08
2017-04-09T07:14:44.921Z,80.08
2017-04-09T07:15:44.921Z,79.99
2017-04-09T07:16:44.978Z,79.41
2017-04-09T07:17:45.013Z,79.03
2017-04-09T07:18:45.035Z,79.07
2017-04-09T07:19:45.084Z,78.97
2017-04-09T07:20:45.107Z,79.13
2017-04-09T07:21:45.150Z,78.97
2017-04-09T07:22:45.189Z,78.88
2017-04-09T07:23:45.221Z,78.59
2017-04-09T07:24:45.232Z,78.59
2017-04-09T07:25:45.281Z,78.78
2017-04-09T07:26:45.326Z,78.4
2017-04-09T07:27:45.355Z,78.11
2017-04-09T07:28:45.381Z,77.73
2017-04-09T07:29:45.430Z,78.02
2017-04-09T07:30:45.452Z,77.73
2017-04-09T07:31:45.476Z,77.86
2017-04-09T07:32:45.547Z,77.82
2017-04-09T07:33:45.548Z,77.86
2017-04-09T07:34:45.594Z,77.76
2017-04-09T07:35:45.635Z,76.9
2017-04-09T07:36:45.676Z,76.71
2017-04-09T07:37:45.694Z,76.56
2017-04-09T07:38:45.745Z,76.46
2017-04-09T07:39:45.779Z,75.5
2017-04-09T07:40:45.848Z,75.45
2017-04-09T07:41:45.854Z,74.19
2017-04-09T07:42:45.894Z,74.29
2017-04-09T07:43:45.929Z,74.44
2017-04-09T07:44:45.961Z,74.19
2017-04-09T07:45:45.993Z,71.96
2017-04-09T07:46:46.028Z,68.22
2017-04-09T07:47:46.069Z,64.08
2017-04-09T07:48:46.103Z,60.83
2017-04-09T07:49:46.139Z,57.24
2017-04-09T07:50:46.559Z,54.71
2017-04-09T07:51:46.191Z,52.64
2017-04-09T07:52:46.240Z,50.84
2017-04-09T07:53:46.291Z,47.42
2017-04-09T07:54:46.329Z,47.05
2017-04-09T07:55:46.356Z,46.69
2017-04-09T07:56:46.404Z,46.25
2017-04-09T07:57:46.451Z,45.39
2017-04-09T07:58:46.499Z,44.83
2017-04-09T07:59:46.527Z,41.93
2017-04-09T08:00:46.567Z,41.75
2017-04-09T08:01:46.597Z,41.85
2017-04-09T08:02:46.641Z,41.77
2017-04-09T08:03:46.699Z,41.19
2017-04-09T08:04:46.727Z,41.58
2017-04-09T08:05:46.765Z,40.84
2017-04-09T08:06:46.801Z,39.86
2017-04-09T08:07:46.853Z,39.2
2017-04-09T08:08:46.887Z,37.96
2017-04-09T08:09:46.932Z,37.27
2017-04-09T08:10:47.068Z,36.3
2017-04-09T08:11:46.998Z,36.32
2017-04-09T08:12:47.053Z,35.85
2017-04-09T08:13:47.096Z,35.75
2017-04-09T08:14:47.140Z,36.04
2017-04-09T08:15:47.176Z,35.27
2017-04-09T08:16:47.225Z,33.9
2017-04-09T08:17:47.246Z,34.47
2017-04-09T08:18:47.307Z,34.57
2017-04-09T08:19:47.352Z,34.28
2017-04-09T08:20:47.393Z,33.98
2017-04-09T08:21:47.454Z,33.9
2017-04-09T08:22:47.485Z,33.7
2017-04-09T08:23:47.514Z,33.72
2017-04-09T08:24:47.579Z,33.14
2017-04-09T08:25:47.605Z,33.15
2017-04-09T08:26:47.633Z,32.78
2017-04-09T08:27:47.695Z,31.6
2017-04-09T08:28:47.883Z,32.48
2017-04-09T08:29:47.776Z,31.89
2017-04-09T08:30:47.808Z,32.18
2017-04-09T08:31:47.848Z,31.81
2017-04-09T08:32:47.909Z,31.92
2017-04-09T08:33:47.962Z,31.23
2017-04-09T08:34:48.003Z,30.74
2017-04-09T08:35:48.030Z,30.65
2017-04-09T08:36:48.084Z,30.53
2017-04-09T08:37:48.138Z,31.01
2017-04-09T08:38:48.175Z,30.9
2017-04-09T08:39:48.242Z,31.7
2017-04-09T08:40:48.262Z,31.79
2017-04-09T08:41:48.312Z,31.58
2017-04-09T08:42:48.367Z,32.03
2017-04-09T08:43:48.401Z,32.87
2017-04-09T08:44:48.441Z,34.47
2017-04-09T08:45:48.488Z,35.24
2017-04-09T08:46:48.529Z,34.65
2017-04-09T08:47:48.569Z,34.18
2017-04-09T08:48:48.614Z,33.8
2017-04-09T08:49:48.675Z,33.25
2017-04-09T08:50:48.710Z,32.5
2017-04-09T08:51:48.751Z,32.12
2017-04-09T08:52:48.799Z,32.42
2017-04-09T08:53:48.838Z,31.94
2017-04-09T08:54:48.887Z,31.57
2017-04-09T08:55:48.910Z,31.19
2017-04-09T08:56:48.962Z,30.71
2017-04-09T08:57:49.009Z,30.35
2017-04-09T08:58:49.039Z,29.77
2017-04-09T08:59:49.114Z,29.79
2017-04-09T09:00:49.171Z,28.91
2017-04-09T09:01:49.191Z,28.92
2017-04-09T09:02:49.240Z,28.41
2017-04-09T09:03:49.288Z,29.94
2017-04-09T09:04:49.317Z,30.7
2017-04-09T09:05:49.344Z,31.91
2017-04-09T09:06:49.410Z,32.58
2017-04-09T09:07:49.469Z,31.62
2017-04-09T09:08:49.518Z,31.14
2017-04-09T09:09:49.550Z,30.98
2017-04-09T09:10:49.608Z,31.58
2017-04-09T09:11:49.649Z,30.24
2017-04-09T09:12:49.693Z,29.66
2017-04-09T09:13:49.738Z,30.3
2017-04-09T09:14:49.786Z,30.57
2017-04-09T09:15:49.813Z,30.87
2017-04-09T09:16:49.876Z,31.24
2017-04-09T09:17:49.900Z,30.37
2017-04-09T09:18:49.967Z,30.68
2017-04-09T09:19:50.011Z,30.62
2017-04-09T09:20:50.057Z,29.55
2017-04-09T09:21:50.110Z,30.14
2017-04-09T09:22:50.153Z,30.22
2017-04-09T09:23:50.202Z,30.5
2017-04-09T09:24:50.239Z,30.39
2017-04-09T09:25:50.269Z,29.52
2017-04-09T09:26:50.306Z,29.93
2017-04-09T09:27:50.378Z,28.49
2017-04-09T09:28:50.403Z,28.88
2017-04-09T09:29:50.471Z,28.39
2017-04-09T09:30:50.497Z,28.96
2017-04-09T09:31:50.559Z,29.44
2017-04-09T09:32:50.620Z,29.73
2017-04-09T09:33:50.651Z,29.62
2017-04-09T09:34:50.701Z,30
2017-04-09T09:35:50.755Z,30.16
2017-04-09T09:36:50.804Z,31.77
2017-04-09T09:37:50.839Z,33.58
2017-04-09T09:38:50.880Z,34.88
2017-04-09T09:39:50.922Z,36
2017-04-09T09:40:50.972Z,37.22
2017-04-09T09:41:51.018Z,37.98
2017-04-09T09:42:51.074Z,36.91
2017-04-09T09:43:51.123Z,35.58
2017-04-09T09:44:51.166Z,35.13
2017-04-09T09:45:51.198Z,34.09
2017-04-09T09:46:51.267Z,33.65
2017-04-09T09:47:51.289Z,33.58
2017-04-09T09:48:51.347Z,32.73
2017-04-09T09:49:51.372Z,31.68
2017-04-09T09:50:51.415Z,30.94
2017-04-09T09:51:51.497Z,30.01
2017-04-09T09:52:51.509Z,29.17
2017-04-09T09:53:51.550Z,28.99
2017-04-09T09:54:51.595Z,28.51
2017-04-09T09:55:51.623Z,27.64
2017-04-09T09:56:51.687Z,27.64
2017-04-09T09:57:51.705Z,28.42
2017-04-09T09:58:51.779Z,27.44
2017-04-09T09:59:51.823Z,27.75
2017-04-09T10:00:51.870Z,27.67
2017-04-09T10:01:51.912Z,27.68
2017-04-09T10:02:51.958Z,27.4
2017-04-09T10:03:52.006Z,26.92
2017-04-09T10:04:52.153Z,26.92
2017-04-09T10:05:52.098Z,26.72
2017-04-09T10:06:52.168Z,26.62
2017-04-09T10:07:52.186Z,26.92
2017-04-09T10:08:52.233Z,26.42
2017-04-09T10:09:52.277Z,26.24
2017-04-09T10:10:52.307Z,26.53
2017-04-09T10:11:52.378Z,26.62
2017-04-09T10:12:52.422Z,26.71
2017-04-09T10:13:52.461Z,26.78
2017-04-09T10:14:52.521Z,27.85
2017-04-09T10:15:52.529Z,27.54
2017-04-09T10:16:52.594Z,27.74
2017-04-09T10:17:52.677Z,28.31
2017-04-09T10:18:52.678Z,28.22
2017-04-09T10:19:52.723Z,28.61
2017-04-09T10:20:52.774Z,28.24
2017-04-09T10:21:52.821Z,27.57
2017-04-09T10:22:52.867Z,27.78
2017-04-09T10:23:52.915Z,27.3
2017-04-09T10:24:52.951Z,27.28
2017-04-09T10:25:53.003Z,26.98
2017-04-09T10:26:53.041Z,27.45
2017-04-09T10:27:53.063Z,28.03
2017-04-09T10:28:53.147Z,27.53
2017-04-09T10:29:53.169Z,27.61
2017-04-09T10:30:53.219Z,27.81
2017-04-09T10:31:53.259Z,27.53
2017-04-09T10:32:53.302Z,27.25
2017-04-09T10:33:53.347Z,27.23
2017-04-09T10:34:53.383Z,27.82
2017-04-09T10:35:53.424Z,27.72
2017-04-09T10:36:53.472Z,27.54
2017-04-09T10:37:53.517Z,27.75
2017-04-09T10:38:53.539Z,27.27
2017-04-09T10:39:53.598Z,27.17
2017-04-09T10:40:53.644Z,27.27
2017-04-09T10:41:53.685Z,26.78
2017-04-09T10:42:53.727Z,26.87
2017-04-09T10:43:53.754Z,27.54
2017-04-09T10:44:53.807Z,27.44
2017-04-09T10:45:53.842Z,27.64
2017-04-09T10:46:53.893Z,27.25
2017-04-09T10:47:53.932Z,27.74
2017-04-09T10:48:53.980Z,27.82
2017-04-09T10:49:54.022Z,28.22
2017-04-09T10:50:54.056Z,27.92
2017-04-09T10:51:54.101Z,28.4
2017-04-09T10:52:54.141Z,28.11
2017-04-09T10:53:54.175Z,28.47
2017-04-09T10:54:54.221Z,27.88
2017-04-09T10:55:54.263Z,28.85
2017-04-09T10:56:54.307Z,28.37
2017-04-09T10:57:54.336Z,28.55
2017-04-09T10:58:54.403Z,28.47
2017-04-09T10:59:54.430Z,28.58
2017-04-09T11:00:54.461Z,28
2017-04-09T11:01:54.503Z,28.4
2017-04-09T11:02:54.538Z,28.51
2017-04-09T11:03:54.606Z,27.92
2017-04-09T11:04:54.643Z,28.22
2017-04-09T11:05:54.668Z,28.11
2017-04-09T11:06:54.708Z,28.5
2017-04-09T11:07:54.732Z,28.59
2017-04-09T11:08:54.788Z,28.4
2017-04-09T11:09:54.826Z,28.49
2017-04-09T11:10:54.845Z,28.11
2017-04-09T11:11:54.905Z,27.61
2017-04-09T11:12:54.940Z,28.27
2017-04-09T11:13:54.986Z,28.85
2017-04-09T11:14:55.025Z,29.41
2017-04-09T11:15:55.066Z,29.6
2017-04-09T11:16:55.089Z,29.72
2017-04-09T11:17:55.136Z,29.82
2017-04-09T11:18:55.203Z,28.85
2017-04-09T11:19:55.209Z,29.05
2017-04-09T11:20:55.250Z,29.22
2017-04-09T11:21:55.327Z,29.22
2017-04-09T11:22:55.326Z,29.33
2017-04-09T11:23:55.378Z,29.62
2017-04-09T11:24:55.430Z,29.03
2017-04-09T11:25:55.460Z,28.85
2017-04-09T11:26:55.498Z,28.85
2017-04-09T11:27:55.518Z,28.95
2017-04-09T11:28:55.568Z,29.05
2017-04-09T11:29:55.619Z,28.83
2017-04-09T11:30:55.655Z,29.02
2017-04-09T11:31:55.695Z,29.58
2017-04-09T11:32:55.732Z,29.87
2017-04-09T11:33:55.775Z,30.25
2017-04-09T11:34:55.813Z,29.95
2017-04-09T11:35:55.855Z,29.95
2017-04-09T11:36:55.883Z,30.62
2017-04-09T11:37:55.931Z,30.88
2017-04-09T11:38:55.969Z,31.36
2017-04-09T11:39:56.007Z,32.04
2017-04-09T11:40:56.019Z,32.23
2017-04-09T11:41:56.081Z,32.71
2017-04-09T11:42:56.120Z,32.91
2017-04-09T11:43:56.157Z,33.28
2017-04-09T11:44:56.198Z,33.38
2017-04-09T11:45:56.226Z,32.97
2017-04-09T11:46:56.255Z,33.83
2017-04-09T11:47:56.316Z,34.32
2017-04-09T11:48:56.355Z,34.69
2017-04-09T11:49:56.392Z,35.25
2017-04-09T11:50:56.426Z,36.38
2017-04-09T11:51:56.469Z,37.78
2017-04-09T11:52:56.504Z,39.16
2017-04-09T11:53:56.528Z,41.72
2017-04-09T11:54:56.578Z,43.88
2017-04-09T11:55:56.621Z,44.63
2017-04-09T11:56:56.657Z,45.55
2017-04-09T11:57:56.693Z,46.88
2017-04-09T11:58:56.714Z,47.82
2017-04-09T11:59:56.766Z,48.38
2017-04-09T12:00:56.808Z,48.76
2017-04-09T12:01:56.828Z,49.15
2017-04-09T12:02:56.879Z,49.79
2017-04-09T12:03:56.920Z,50.57
2017-04-09T12:04:56.956Z,50.95
2017-04-09T12:05:56.994Z,51.21
2017-04-09T12:06:57.019Z,51.02
2017-04-09T12:07:57.064Z,51.12
2017-04-09T12:08:57.103Z,51.76
2017-04-09T12:09:57.124Z,52.63
2017-04-09T12:10:57.225Z,52.63
2017-04-09T12:11:57.224Z,53.21
2017-04-09T12:12:57.255Z,52.92
2017-04-09T12:13:57.297Z,53.38
2017-04-09T12:14:57.329Z,53.19
2017-04-09T12:15:57.360Z,52.99
2017-04-09T12:16:57.408Z,52.7
2017-04-09T12:17:57.425Z,52.89
2017-04-09T12:18:57.482Z,53.19
2017-04-09T12:19:57.517Z,53.19
2017-04-09T12:20:57.552Z,53.19
2017-04-09T12:21:57.591Z,53.54
2017-04-09T12:22:57.623Z,54.31
2017-04-09T12:23:57.660Z,54.79
2017-04-09T12:24:57.702Z,54.6
2017-04-09T12:25:57.707Z,54.5
2017-04-09T12:26:57.789Z,54.6
2017-04-09T12:27:57.813Z,54.41
2017-04-09T12:28:57.850Z,53.83
2017-04-09T12:29:57.882Z,54.6
2017-04-09T12:30:57.923Z,54.96
2017-04-09T12:31:57.958Z,55.24
2017-04-09T12:32:57.994Z,55.15
2017-04-09T12:33:58.042Z,55.27
2017-04-09T12:34:58.071Z,55.05
2017-04-09T12:35:58.115Z,54.89
2017-04-09T12:36:58.138Z,55.08
2017-04-09T12:37:58.174Z,55.37
2017-04-09T12:38:58.220Z,54.69
2017-04-09T12:39:58.269Z,54.96
2017-04-09T12:40:58.302Z,54.89
2017-04-09T12:41:58.328Z,54.86
2017-04-09T12:42:58.368Z,54.96
2017-04-09T12:43:58.402Z,55.53
2017-04-09T12:44:58.438Z,56.11
2017-04-09T12:45:58.482Z,56.3
2017-04-09T12:46:58.509Z,56.49
2017-04-09T12:47:58.520Z,56.78
2017-04-09T12:48:58.590Z,56.78
2017-04-09T12:49:58.624Z,56.4
2017-04-09T12:50:58.653Z,56.4
2017-04-09T12:51:58.700Z,56.59
2017-04-09T12:52:58.741Z,56.21
2017-04-09T12:53:58.767Z,56.11
2017-04-09T12:54:58.807Z,56.11